Galesburg, IL (61401)

12:39 PM CST on February 12, 2016 (GMT -0600)
N9VPV | | Change Station
CLOSE
Current Station
Personal Weather Station
Location: Galesburg, IL
Elevation: 777 ft
Nearby Weather Stations

Elev 777 ft 40.95 °N, 90.39 °W | Updated 2 seconds ago

Mostly Cloudy
Mostly Cloudy
25.6 °F
Feels Like 18 °F
N
7.0
Wind Variable Wind from West
Gusts 10.0 mph

Today
High -- | Low -- °F
--% Chance of Precip.
Yesterday
High -- | Low -- °F
Precip. -- in
Pressure 30.29 in
Visibility 10.0 miles
Clouds Mostly Cloudy 2900 ft
Mostly Cloudy 3500 ft
Windchill 18 °F
Dew Point 15 °F
Humidity 64%
Rainfall 0.00 in
Snow Depth Not available.
7:00 AM 5:31 PM
Waxing Crescent, 22% visible
METAR KGBG 121815Z AUTO 30015G21KT 10SM BKN029 BKN035 M04/M11 A3029 RMK AO2 T10421106
Pressure 30.29 in
Visibility 10.0 miles
Clouds Mostly Cloudy 2900 ft
Mostly Cloudy 3500 ft
Windchill 18 °F
Dew Point 15 °F
Humidity 64%
Rainfall 0.00 in
Snow Depth Not available.
7:00 AM 5:31 PM
Waxing Crescent, 22% visible
METAR KGBG 121815Z AUTO 30015G21KT 10SM BKN029 BKN035 M04/M11 A3029 RMK AO2 T10421106

10-Day Weather Forecast

Almanac

Astronomy

Feb. 12, 2016 Rise Set
Actual Time
Civil Twilight
Nautical Twilight
Astronomical Twilight
Moon
Length of Visible Light
Length of Day
Tomorrow will be .
, % of the Moon is Illuminated

Today's Extremes

State Highs State Lows

Community

WunderPhotos

Upload Photos

1,892,366 photos uploaded!

WunderBlog® & News

Nearby

Air Quality

  Air Quality AQ Index Pollutant
Not available.

Snow Depth

Station Depth Elevation

Earthquake Activity

City Distance Mag. Time & Date
Minimum magnitude displayed is 2.5.

Coastal Water Temperatures

Place Temperature

Stations

Nearby Weather Stations

Station Location Temp. Windchill Dew Point Humidity Wind Precip. Elev Updated Type
                   

Watches & Warnings

There are currently no watches in effect.